createdAt,value
2023-03-16T00:01:05.244Z,3.00
2023-03-16T00:03:51.931Z,3.00
2023-03-16T00:06:38.298Z,2.90
2023-03-16T00:09:31.136Z,2.90
2023-03-16T00:12:19.691Z,2.80
2023-03-16T00:15:07.572Z,2.80
2023-03-16T00:17:54.889Z,2.80
2023-03-16T00:20:41.386Z,2.80
2023-03-16T00:23:28.222Z,2.80
2023-03-16T00:26:15.884Z,2.70
2023-03-16T00:29:02.358Z,2.70
2023-03-16T00:31:48.852Z,2.80
2023-03-16T00:34:35.770Z,2.80
2023-03-16T00:37:23.922Z,2.80
2023-03-16T00:40:13.704Z,2.80
2023-03-16T00:43:01.746Z,2.80
2023-03-16T00:45:48.402Z,2.80
2023-03-16T00:48:35.707Z,2.80
2023-03-16T00:51:22.955Z,2.90
2023-03-16T00:54:10.424Z,2.90
2023-03-16T00:56:57.329Z,2.90
2023-03-16T00:59:45.427Z,2.90
2023-03-16T01:02:32.523Z,2.90
2023-03-16T01:05:19.339Z,3.00
2023-03-16T01:08:06.080Z,3.00
2023-03-16T01:10:52.585Z,3.70
2023-03-16T01:13:39.899Z,3.00
2023-03-16T01:16:28.319Z,3.10
2023-03-16T01:19:16.055Z,3.10
2023-03-16T01:22:04.162Z,3.10
2023-03-16T01:24:50.856Z,3.20
2023-03-16T01:27:37.981Z,3.20
2023-03-16T01:30:24.447Z,3.30
2023-03-16T01:33:12.766Z,3.30
2023-03-16T01:36:01.268Z,3.20
2023-03-16T01:38:48.242Z,3.20
2023-03-16T01:41:35.059Z,3.30
2023-03-16T01:44:24.472Z,3.30
2023-03-16T01:47:12.905Z,3.30
2023-03-16T01:50:00.739Z,3.30
2023-03-16T01:52:47.507Z,3.20
2023-03-16T01:55:33.769Z,3.10
2023-03-16T01:58:20.211Z,3.20
2023-03-16T02:01:07.107Z,3.20
2023-03-16T02:03:58.611Z,3.10
2023-03-16T02:06:48.373Z,3.10
2023-03-16T02:09:37.506Z,3.10
2023-03-16T02:12:24.093Z,3.00
2023-03-16T02:15:12.457Z,3.00
2023-03-16T02:18:00.777Z,3.00
2023-03-16T02:20:51.876Z,3.00
2023-03-16T02:23:39.977Z,2.90
2023-03-16T02:26:36.067Z,2.90
2023-03-16T02:29:33.155Z,2.90
2023-03-16T02:32:24.222Z,2.80
2023-03-16T02:35:13.159Z,2.80
2023-03-16T02:37:59.628Z,2.80
2023-03-16T02:40:53.907Z,2.80
2023-03-16T02:43:43.602Z,2.70
2023-03-16T02:46:35.767Z,2.70
2023-03-16T02:49:28.500Z,2.70
2023-03-16T02:52:15.306Z,2.70
2023-03-16T02:55:01.947Z,2.70
2023-03-16T02:57:49.032Z,2.60
2023-03-16T03:00:35.505Z,2.60
2023-03-16T03:03:22.043Z,2.50
2023-03-16T03:06:10.376Z,2.60
2023-03-16T03:08:56.976Z,2.60
2023-03-16T03:11:43.649Z,2.60
2023-03-16T03:14:30.007Z,2.50
2023-03-16T03:17:16.885Z,2.60
2023-03-16T03:20:07.950Z,2.60
2023-03-16T03:22:55.682Z,2.70
2023-03-16T03:25:42.265Z,2.60
2023-03-16T03:28:28.687Z,2.70
2023-03-16T03:31:17.614Z,2.70
2023-03-16T03:34:06.711Z,2.70
2023-03-16T03:36:53.738Z,2.70
2023-03-16T03:39:41.748Z,2.60
2023-03-16T03:42:28.147Z,2.60
2023-03-16T03:45:15.937Z,2.70
2023-03-16T03:48:02.943Z,2.70
2023-03-16T03:50:49.541Z,2.70
2023-03-16T03:53:35.983Z,2.70
2023-03-16T03:56:23.714Z,2.70
2023-03-16T03:59:10.827Z,2.70
2023-03-16T04:01:57.548Z,2.70
2023-03-16T04:04:45.042Z,2.70
2023-03-16T04:07:32.088Z,2.70
2023-03-16T04:10:18.752Z,2.70
2023-03-16T04:13:06.710Z,2.70
2023-03-16T04:15:58.152Z,2.70
2023-03-16T04:18:46.128Z,2.70
2023-03-16T04:21:33.377Z,2.80
2023-03-16T04:24:20.150Z,2.80
2023-03-16T04:27:07.065Z,2.80
2023-03-16T04:29:58.607Z,2.70
2023-03-16T04:32:45.198Z,2.70
2023-03-16T04:35:32.465Z,2.70
2023-03-16T04:38:19.330Z,2.80
2023-03-16T04:41:06.912Z,2.70
2023-03-16T04:43:53.447Z,2.80
2023-03-16T04:46:41.562Z,2.80
2023-03-16T04:49:28.284Z,2.70
2023-03-16T04:52:14.775Z,2.80
2023-03-16T04:55:01.519Z,2.80
2023-03-16T04:57:47.958Z,2.90
2023-03-16T05:00:34.517Z,2.90
2023-03-16T05:03:23.228Z,2.90
2023-03-16T05:06:10.391Z,3.00
2023-03-16T05:08:56.775Z,3.00
2023-03-16T05:11:43.219Z,3.10
2023-03-16T05:14:29.616Z,3.10
2023-03-16T05:17:15.996Z,3.10
2023-03-16T05:20:15.860Z,3.10
2023-03-16T05:23:02.798Z,3.20
2023-03-16T05:25:49.900Z,3.10
2023-03-16T05:28:36.673Z,3.20
2023-03-16T05:31:23.340Z,3.20
2023-03-16T05:34:09.896Z,3.20
2023-03-16T05:36:57.776Z,3.30
2023-03-16T05:39:44.259Z,3.30
2023-03-16T05:42:30.870Z,3.30
2023-03-16T05:45:18.445Z,3.30
2023-03-16T05:48:06.383Z,3.40
2023-03-16T05:50:53.671Z,3.40
2023-03-16T05:53:41.696Z,3.40
2023-03-16T05:56:29.423Z,3.40
2023-03-16T05:59:17.934Z,3.40
2023-03-16T06:02:04.538Z,3.40
2023-03-16T06:04:50.865Z,3.50
2023-03-16T06:07:37.699Z,3.50
2023-03-16T06:10:26.740Z,3.60
2023-03-16T06:13:13.589Z,3.50
2023-03-16T06:16:00.087Z,3.50
2023-03-16T06:18:46.817Z,3.60
2023-03-16T06:21:33.145Z,3.60
2023-03-16T06:24:19.703Z,3.60
2023-03-16T06:27:07.555Z,3.60
2023-03-16T06:29:54.186Z,3.60
2023-03-16T06:32:42.368Z,3.70
2023-03-16T06:35:29.017Z,3.70
2023-03-16T06:38:15.454Z,3.70
2023-03-16T06:41:02.206Z,3.70
2023-03-16T06:43:50.008Z,3.80
2023-03-16T06:46:36.853Z,3.80
2023-03-16T06:49:23.270Z,3.80
2023-03-16T06:52:10.578Z,3.90
2023-03-16T06:54:58.522Z,4.00
2023-03-16T06:57:44.950Z,4.00
2023-03-16T07:00:34.137Z,4.10
2023-03-16T07:03:21.690Z,4.00
2023-03-16T07:06:08.827Z,4.10
2023-03-16T07:08:55.530Z,4.10
2023-03-16T07:11:42.253Z,4.10
2023-03-16T07:14:28.784Z,4.20
2023-03-16T07:17:16.549Z,4.20
2023-03-16T07:20:05.415Z,4.30
2023-03-16T07:22:52.462Z,4.40
2023-03-16T07:25:38.788Z,4.40
2023-03-16T07:28:25.340Z,4.50
2023-03-16T07:31:13.036Z,4.50
2023-03-16T07:34:02.371Z,4.50
2023-03-16T07:36:49.694Z,4.60
2023-03-16T07:39:36.529Z,4.60
2023-03-16T07:42:23.774Z,4.70
2023-03-16T07:45:12.245Z,4.70
2023-03-16T07:47:59.036Z,4.80
2023-03-16T07:50:48.605Z,4.80
2023-03-16T07:53:35.340Z,4.90
2023-03-16T07:56:22.303Z,5.00
2023-03-16T07:59:09.155Z,5.10
2023-03-16T08:01:55.724Z,5.00
2023-03-16T08:04:43.158Z,5.10
2023-03-16T08:07:31.924Z,5.10
2023-03-16T08:10:18.423Z,5.20
2023-03-16T08:13:05.786Z,5.20
2023-03-16T08:15:58.527Z,5.30
2023-03-16T08:18:45.401Z,5.30
2023-03-16T08:21:31.858Z,5.40
2023-03-16T08:24:19.815Z,5.40
2023-03-16T08:27:06.266Z,5.50
2023-03-16T08:29:54.057Z,5.60
2023-03-16T08:32:41.453Z,5.70
2023-03-16T08:35:29.280Z,5.80
2023-03-16T08:38:17.027Z,5.90
2023-03-16T08:41:05.140Z,5.80
2023-03-16T08:43:52.443Z,6.00
2023-03-16T08:46:39.369Z,5.90
2023-03-16T08:49:25.973Z,6.10
2023-03-16T08:52:12.901Z,6.10
2023-03-16T08:55:03.367Z,6.20
2023-03-16T08:57:52.246Z,6.30
2023-03-16T09:00:39.216Z,6.40
2023-03-16T09:03:26.309Z,6.50
2023-03-16T09:06:15.171Z,6.60
2023-03-16T09:09:01.879Z,6.70
2023-03-16T09:11:49.804Z,6.80
2023-03-16T09:14:38.543Z,6.90
2023-03-16T09:17:25.134Z,7.10
2023-03-16T09:20:30.062Z,7.20
2023-03-16T09:23:16.930Z,7.30
2023-03-16T09:26:07.452Z,7.20
2023-03-16T09:28:54.420Z,7.30
2023-03-16T09:31:43.170Z,7.40
2023-03-16T09:34:30.577Z,7.60
2023-03-16T09:37:18.160Z,7.70
2023-03-16T09:40:10.394Z,7.80
2023-03-16T09:43:20.092Z,7.90
2023-03-16T09:46:11.076Z,8.00
2023-03-16T09:49:00.175Z,8.00
2023-03-16T09:51:52.413Z,8.10
2023-03-16T09:54:44.489Z,8.10
2023-03-16T09:57:35.577Z,8.10
2023-03-16T10:00:25.342Z,8.20
2023-03-16T10:03:30.002Z,8.50
2023-03-16T10:06:18.078Z,8.50
2023-03-16T10:09:17.751Z,8.80
2023-03-16T10:12:07.863Z,8.70
2023-03-16T10:14:58.917Z,8.80
2023-03-16T10:17:50.072Z,8.90
2023-03-16T10:20:36.839Z,8.90
2023-03-16T10:23:27.004Z,8.90
2023-03-16T10:26:18.737Z,8.80
2023-03-16T10:29:07.503Z,8.90
2023-03-16T10:31:56.768Z,8.90
2023-03-16T10:34:46.608Z,9.00
2023-03-16T10:37:34.411Z,9.10
2023-03-16T10:40:23.446Z,9.00
2023-03-16T10:43:14.239Z,9.00
2023-03-16T10:46:03.180Z,9.20
2023-03-16T10:48:59.368Z,9.20
2023-03-16T10:51:46.846Z,9.30
2023-03-16T10:54:36.386Z,9.40
2023-03-16T10:57:27.494Z,9.30
2023-03-16T11:00:21.405Z,9.40
2023-03-16T11:03:22.942Z,9.40
2023-03-16T11:06:20.475Z,9.50
2023-03-16T11:09:13.798Z,9.50
2023-03-16T11:12:01.314Z,9.50
2023-03-16T11:14:49.775Z,9.80
2023-03-16T11:17:41.453Z,9.90
2023-03-16T11:20:29.877Z,10.10
2023-03-16T11:23:19.442Z,10.10
2023-03-16T11:26:12.322Z,10.10
2023-03-16T11:29:08.926Z,10.10
2023-03-16T11:32:01.678Z,10.00
2023-03-16T11:34:49.004Z,10.00
2023-03-16T11:37:50.432Z,10.00
2023-03-16T11:40:45.422Z,10.00
2023-03-16T11:43:51.240Z,10.10
2023-03-16T11:46:42.930Z,10.10
2023-03-16T11:49:52.184Z,10.20
2023-03-16T11:52:48.384Z,10.20
2023-03-16T11:55:43.183Z,10.50
2023-03-16T11:58:41.110Z,10.80
2023-03-16T12:01:43.068Z,10.90
2023-03-16T12:04:42.098Z,10.70
2023-03-16T12:07:43.926Z,10.70
2023-03-16T12:10:36.280Z,10.60
2023-03-16T12:13:36.410Z,10.50
2023-03-16T12:16:33.235Z,10.50
2023-03-16T12:19:31.608Z,10.40
2023-03-16T12:22:22.701Z,10.50
2023-03-16T12:25:20.532Z,10.60
2023-03-16T12:28:16.050Z,10.80
2023-03-16T12:31:10.412Z,10.90
2023-03-16T12:34:10.382Z,10.90
2023-03-16T12:37:15.280Z,10.80
2023-03-16T12:40:15.765Z,10.70
2023-03-16T12:43:17.537Z,10.60
2023-03-16T12:46:08.782Z,10.70
2023-03-16T12:48:58.500Z,10.60
2023-03-16T12:51:45.554Z,10.80
2023-03-16T12:54:32.107Z,10.80
2023-03-16T12:57:19.960Z,11.00
2023-03-16T13:00:10.175Z,11.00
2023-03-16T13:02:59.781Z,10.90
2023-03-16T13:05:47.711Z,11.00
2023-03-16T13:08:44.068Z,10.90
2023-03-16T13:11:41.895Z,10.90
2023-03-16T13:14:40.471Z,10.80
2023-03-16T13:17:31.852Z,10.70
2023-03-16T13:20:31.135Z,10.80
2023-03-16T13:23:24.871Z,10.90
2023-03-16T13:26:17.085Z,10.80
2023-03-16T13:29:17.698Z,10.70
2023-03-16T13:32:09.558Z,10.70
2023-03-16T13:35:00.934Z,10.50
2023-03-16T13:37:48.289Z,10.40
2023-03-16T13:40:38.005Z,10.40
2023-03-16T13:43:25.838Z,10.40
2023-03-16T13:46:17.102Z,10.40
2023-03-16T13:49:03.812Z,10.50
2023-03-16T13:51:52.647Z,10.50
2023-03-16T13:54:39.084Z,10.40
2023-03-16T13:57:29.608Z,10.50
2023-03-16T14:00:20.282Z,10.50
2023-03-16T14:03:16.227Z,10.50
2023-03-16T14:06:04.673Z,10.60
2023-03-16T14:08:55.004Z,10.40
2023-03-16T14:11:42.869Z,10.50
2023-03-16T14:14:31.210Z,10.50
2023-03-16T14:17:20.471Z,10.50
2023-03-16T14:20:11.726Z,10.50
2023-03-16T14:22:59.922Z,10.50
2023-03-16T14:25:49.657Z,10.60
2023-03-16T14:28:36.400Z,10.60
2023-03-16T14:31:23.126Z,10.50
2023-03-16T14:34:23.190Z,10.50
2023-03-16T14:37:11.988Z,10.60
2023-03-16T14:40:06.032Z,10.50
2023-03-16T14:42:55.739Z,10.60
2023-03-16T14:45:42.726Z,10.70
2023-03-16T14:48:30.317Z,10.80
2023-03-16T14:51:17.135Z,10.90
2023-03-16T14:54:03.797Z,10.90
2023-03-16T14:56:51.729Z,10.90
2023-03-16T14:59:39.920Z,10.80
2023-03-16T15:02:29.800Z,10.70
2023-03-16T15:05:31.936Z,10.60
2023-03-16T15:08:23.182Z,10.60
2023-03-16T15:11:09.623Z,10.60
2023-03-16T15:14:04.295Z,10.50
2023-03-16T15:16:52.562Z,10.50
2023-03-16T15:19:39.191Z,10.40
2023-03-16T15:22:29.722Z,10.50
2023-03-16T15:25:28.123Z,10.40
2023-03-16T15:28:17.383Z,10.40
2023-03-16T15:31:04.673Z,10.40
2023-03-16T15:33:52.589Z,10.50
2023-03-16T15:36:39.259Z,10.50
2023-03-16T15:39:26.519Z,10.40
2023-03-16T15:42:16.573Z,10.40
2023-03-16T15:45:03.232Z,10.40
2023-03-16T15:47:50.102Z,10.40
2023-03-16T15:50:39.076Z,10.40
2023-03-16T15:53:31.369Z,10.50
2023-03-16T15:56:23.768Z,10.50
2023-03-16T15:59:16.920Z,10.50
2023-03-16T16:02:03.620Z,10.50
2023-03-16T16:04:50.121Z,10.50
2023-03-16T16:07:37.891Z,10.50
2023-03-16T16:10:25.234Z,10.50
2023-03-16T16:13:14.963Z,10.50
2023-03-16T16:16:01.477Z,10.50
2023-03-16T16:18:48.981Z,10.70
2023-03-16T16:21:35.749Z,10.80
2023-03-16T16:24:25.451Z,10.80
2023-03-16T16:27:13.026Z,10.70
2023-03-16T16:29:59.554Z,10.60
2023-03-16T16:32:46.813Z,10.60
2023-03-16T16:35:33.051Z,10.50
2023-03-16T16:38:19.984Z,10.40
2023-03-16T16:41:09.751Z,10.40
2023-03-16T16:43:57.561Z,10.30
2023-03-16T16:46:43.991Z,10.30
2023-03-16T16:49:32.285Z,10.20
2023-03-16T16:52:19.911Z,10.10
2023-03-16T16:55:06.906Z,10.10
2023-03-16T16:57:55.846Z,10.10
2023-03-16T17:00:44.552Z,10.00
2023-03-16T17:03:31.439Z,10.00
2023-03-16T17:06:20.323Z,9.90
2023-03-16T17:09:08.792Z,9.90
2023-03-16T17:11:58.696Z,9.80
2023-03-16T17:14:47.156Z,9.70
2023-03-16T17:17:33.492Z,9.70
2023-03-16T17:20:25.414Z,9.70
2023-03-16T17:23:26.591Z,9.70
2023-03-16T17:26:17.533Z,9.60
2023-03-16T17:29:07.830Z,9.60
2023-03-16T17:31:55.598Z,9.60
2023-03-16T17:34:42.236Z,9.50
2023-03-16T17:37:28.788Z,9.50
2023-03-16T17:40:20.247Z,9.50
2023-03-16T17:43:10.774Z,9.50
2023-03-16T17:45:57.568Z,9.40
2023-03-16T17:48:45.583Z,9.40
2023-03-16T17:51:32.854Z,9.40
2023-03-16T17:54:19.713Z,9.40
2023-03-16T17:57:07.230Z,9.30
2023-03-16T17:59:53.974Z,9.30
2023-03-16T18:02:45.605Z,9.30
2023-03-16T18:05:35.114Z,9.20
2023-03-16T18:08:25.757Z,9.20
2023-03-16T18:11:18.396Z,9.20
2023-03-16T18:14:08.750Z,9.10
2023-03-16T18:16:55.689Z,9.10
2023-03-16T18:19:43.437Z,9.10
2023-03-16T18:22:31.292Z,9.00
2023-03-16T18:25:36.110Z,9.00
2023-03-16T18:28:23.489Z,9.00
2023-03-16T18:31:19.878Z,8.90
2023-03-16T18:34:07.804Z,8.90
2023-03-16T18:36:55.825Z,8.90
2023-03-16T18:39:43.970Z,8.90
2023-03-16T18:42:30.487Z,8.90
2023-03-16T18:45:17.540Z,8.80
2023-03-16T18:48:03.963Z,8.80
2023-03-16T18:50:51.062Z,8.90
2023-03-16T18:53:37.406Z,8.80
2023-03-16T18:56:27.248Z,8.80
2023-03-16T18:59:14.458Z,8.80
2023-03-16T19:02:01.366Z,8.80
2023-03-16T19:04:48.352Z,8.80
2023-03-16T19:07:37.475Z,8.80
2023-03-16T19:10:27.576Z,8.70
2023-03-16T19:13:19.320Z,8.70
2023-03-16T19:16:09.173Z,8.70
2023-03-16T19:18:56.083Z,8.70
2023-03-16T19:21:43.125Z,8.70
2023-03-16T19:24:35.134Z,8.70
2023-03-16T19:27:26.292Z,8.70
2023-03-16T19:30:23.377Z,8.70
2023-03-16T19:33:18.756Z,8.70
2023-03-16T19:36:06.212Z,8.70
2023-03-16T19:38:53.507Z,8.70
2023-03-16T19:41:41.012Z,8.70
2023-03-16T19:44:29.342Z,8.80
2023-03-16T19:47:24.713Z,8.70
2023-03-16T19:50:16.030Z,8.80
2023-03-16T19:53:02.641Z,8.80
2023-03-16T19:55:51.115Z,8.80
2023-03-16T19:58:39.641Z,8.70
2023-03-16T20:01:32.245Z,8.80
2023-03-16T20:04:23.879Z,8.80
2023-03-16T20:07:15.923Z,8.80
2023-03-16T20:10:02.518Z,8.80
2023-03-16T20:12:52.230Z,8.80
2023-03-16T20:15:39.036Z,8.80
2023-03-16T20:18:26.038Z,8.70
2023-03-16T20:21:17.526Z,8.70
2023-03-16T20:24:04.453Z,8.80
2023-03-16T20:26:52.410Z,8.70
2023-03-16T20:29:39.600Z,8.70
2023-03-16T20:32:31.573Z,8.70
2023-03-16T20:35:21.186Z,8.70
2023-03-16T20:38:12.800Z,8.70
2023-03-16T20:40:59.432Z,8.70
2023-03-16T20:43:45.847Z,8.70
2023-03-16T20:46:33.839Z,8.70
2023-03-16T20:49:32.752Z,8.70
2023-03-16T20:52:21.749Z,8.70
2023-03-16T20:55:11.299Z,8.70
2023-03-16T20:57:58.604Z,8.70
2023-03-16T21:00:45.691Z,8.60
2023-03-16T21:03:33.414Z,8.60
2023-03-16T21:06:23.645Z,8.60
2023-03-16T21:09:10.719Z,8.60
2023-03-16T21:11:58.704Z,8.50
2023-03-16T21:14:45.309Z,8.60
2023-03-16T21:17:33.503Z,8.60
2023-03-16T21:20:22.424Z,8.50
2023-03-16T21:23:14.221Z,8.50
2023-03-16T21:26:03.732Z,8.50
2023-03-16T21:28:56.614Z,8.60
2023-03-16T21:31:43.327Z,8.60
2023-03-16T21:34:33.869Z,8.60
2023-03-16T21:37:24.162Z,8.60
2023-03-16T21:40:18.068Z,8.60
2023-03-16T21:43:04.624Z,8.60
2023-03-16T21:45:54.071Z,8.60
2023-03-16T21:48:43.368Z,8.60
2023-03-16T21:51:31.864Z,8.60
2023-03-16T21:54:19.239Z,8.50
2023-03-16T21:57:13.854Z,8.60
2023-03-16T22:00:00.192Z,8.50
2023-03-16T22:02:49.955Z,8.50
2023-03-16T22:05:38.030Z,8.50
2023-03-16T22:08:27.034Z,8.50
2023-03-16T22:11:17.965Z,8.40
2023-03-16T22:14:04.730Z,8.40
2023-03-16T22:16:51.731Z,8.40
2023-03-16T22:19:40.197Z,8.40
2023-03-16T22:22:34.731Z,8.50
2023-03-16T22:25:23.335Z,8.40
2023-03-16T22:28:12.817Z,8.40
2023-03-16T22:31:01.759Z,8.40
2023-03-16T22:33:48.860Z,8.40
2023-03-16T22:36:37.203Z,8.40
2023-03-16T22:39:24.163Z,8.40
2023-03-16T22:42:27.028Z,8.40
2023-03-16T22:45:19.316Z,8.40
2023-03-16T22:48:18.779Z,8.40
2023-03-16T22:51:05.890Z,8.40
2023-03-16T22:53:56.178Z,8.50
2023-03-16T22:56:44.058Z,8.50
2023-03-16T22:59:30.463Z,8.50
2023-03-16T23:02:17.267Z,8.50
2023-03-16T23:05:11.452Z,8.50
2023-03-16T23:08:02.524Z,8.50
2023-03-16T23:10:52.518Z,8.50
2023-03-16T23:13:38.966Z,8.40
2023-03-16T23:16:28.390Z,8.40
2023-03-16T23:19:25.288Z,8.40
2023-03-16T23:22:13.376Z,8.30
2023-03-16T23:24:59.839Z,8.30
2023-03-16T23:27:47.919Z,8.30
2023-03-16T23:30:34.901Z,8.30
2023-03-16T23:33:21.843Z,8.30
2023-03-16T23:36:14.143Z,8.30
2023-03-16T23:39:00.820Z,8.30
2023-03-16T23:41:49.637Z,8.20
2023-03-16T23:44:37.724Z,8.20
2023-03-16T23:47:24.608Z,8.20
2023-03-16T23:50:14.702Z,8.20
2023-03-16T23:53:01.516Z,8.20
2023-03-16T23:55:49.108Z,8.20
2023-03-16T23:58:35.673Z,8.20
